createdAt,value
2022-11-15T00:03:37.105Z,2.28
2022-11-15T00:07:48.388Z,2.28
2022-11-15T00:11:20.696Z,2.28
2022-11-15T00:15:02.667Z,1.92
2022-11-15T00:18:50.409Z,2.25
2022-11-15T00:22:34.145Z,2.05
2022-11-15T00:26:16.098Z,1.73
2022-11-15T00:29:58.012Z,1.80
2022-11-15T00:33:41.002Z,2.15
2022-11-15T00:37:22.695Z,1.98
2022-11-15T00:41:09.363Z,2.40
2022-11-15T00:44:51.441Z,1.95
2022-11-15T00:48:33.233Z,2.53
2022-11-15T00:52:14.906Z,2.38
2022-11-15T00:55:56.588Z,1.90
2022-11-15T00:59:38.292Z,2.17
2022-11-15T01:03:20.009Z,2.60
2022-11-15T01:07:01.747Z,1.90
2022-11-15T01:10:43.509Z,2.03
2022-11-15T01:14:25.852Z,2.45
2022-11-15T01:18:07.789Z,2.03
2022-11-15T01:21:52.619Z,1.33
2022-11-15T01:25:34.297Z,1.83
2022-11-15T01:29:15.971Z,2.08
2022-11-15T01:32:59.939Z,1.70
2022-11-15T01:36:41.601Z,1.38
2022-11-15T01:40:23.300Z,1.88
2022-11-15T01:44:36.009Z,1.55
2022-11-15T01:48:17.693Z,1.58
2022-11-15T01:51:59.850Z,1.58
2022-11-15T01:55:41.613Z,1.80
2022-11-15T01:59:23.356Z,2.00
2022-11-15T02:03:05.085Z,2.20
2022-11-15T02:06:46.828Z,2.05
2022-11-15T02:10:28.576Z,1.67
2022-11-15T02:14:11.585Z,2.47
2022-11-15T02:18:05.529Z,1.60
2022-11-15T02:26:01.046Z,1.73
2022-11-15T02:30:21.076Z,1.65
2022-11-15T02:34:20.891Z,1.33
2022-11-15T02:38:11.669Z,1.85
2022-11-15T02:41:57.801Z,2.17
2022-11-15T02:46:08.372Z,1.15
2022-11-15T02:49:54.711Z,1.58
2022-11-15T02:53:36.602Z,1.20
2022-11-15T02:57:18.413Z,1.85
2022-11-15T03:01:00.721Z,1.17
2022-11-15T03:05:10.354Z,1.50
2022-11-15T03:08:58.377Z,1.33
2022-11-15T03:12:57.756Z,0.90
2022-11-15T03:16:44.398Z,0.90
2022-11-15T03:20:26.154Z,0.60
2022-11-15T03:24:08.856Z,0.75
2022-11-15T03:27:52.945Z,0.60
2022-11-15T03:31:50.526Z,0.75
2022-11-15T03:35:43.750Z,0.40
2022-11-15T03:39:25.480Z,0.47
2022-11-15T03:43:11.714Z,0.38
2022-11-15T03:47:04.855Z,0.38
2022-11-15T03:50:46.557Z,0.20
2022-11-15T03:54:28.285Z,0.60
2022-11-15T03:58:09.972Z,0.40
2022-11-15T04:01:53.713Z,0.30
2022-11-15T04:09:17.038Z,0.68
2022-11-15T04:12:58.816Z,0.13
2022-11-15T04:16:43.895Z,0.20
2022-11-15T04:20:48.525Z,0.10
2022-11-15T04:24:30.328Z,0.32
2022-11-15T04:28:12.473Z,0.30
2022-11-15T04:31:54.323Z,0.30
2022-11-15T04:35:36.042Z,0.35
2022-11-15T04:39:17.749Z,0.40
2022-11-15T04:43:03.912Z,0.40
2022-11-15T04:46:45.928Z,0.85
2022-11-15T04:50:27.606Z,0.82
2022-11-15T04:54:09.342Z,0.32
2022-11-15T04:58:01.662Z,0.80
2022-11-15T05:01:45.091Z,0.70
2022-11-15T05:09:08.815Z,0.40
2022-11-15T05:12:50.717Z,0.82
2022-11-15T05:16:32.401Z,0.68
2022-11-15T05:20:14.470Z,1.40
2022-11-15T05:23:56.352Z,0.70
2022-11-15T05:27:38.148Z,0.77
2022-11-15T05:31:19.979Z,0.50
2022-11-15T05:35:01.670Z,0.65
2022-11-15T05:38:43.369Z,0.60
2022-11-15T05:42:25.365Z,0.60
2022-11-15T05:46:07.042Z,0.60
2022-11-15T05:49:48.790Z,1.23
2022-11-15T05:53:30.895Z,0.90
2022-11-15T05:57:12.901Z,1.20
2022-11-15T06:00:55.012Z,0.90
2022-11-15T06:04:36.774Z,0.98
2022-11-15T06:08:18.449Z,0.98
2022-11-15T06:12:01.437Z,0.80
2022-11-15T06:15:43.120Z,0.90
2022-11-15T06:19:24.847Z,1.15
2022-11-15T06:23:07.740Z,0.90
2022-11-15T06:26:49.409Z,0.80
2022-11-15T06:30:31.105Z,0.80
2022-11-15T06:34:12.894Z,0.73
2022-11-15T06:37:54.615Z,0.77
2022-11-15T06:41:36.661Z,0.60
2022-11-15T06:45:18.389Z,1.00
2022-11-15T06:49:02.031Z,1.15
2022-11-15T06:52:47.105Z,0.80
2022-11-15T06:56:28.774Z,1.38
2022-11-15T07:00:11.275Z,1.23
2022-11-15T07:03:53.084Z,0.90
2022-11-15T07:07:34.774Z,0.93
2022-11-15T07:11:16.692Z,0.70
2022-11-15T07:14:58.363Z,1.38
2022-11-15T07:18:40.567Z,0.70
2022-11-15T07:22:22.389Z,0.80
2022-11-15T07:26:04.088Z,0.80
2022-11-15T07:29:45.844Z,3.00
2022-11-15T07:33:27.777Z,1.00
2022-11-15T07:37:09.640Z,1.00
2022-11-15T07:40:57.561Z,0.50
2022-11-15T07:44:39.268Z,0.70
2022-11-15T07:48:21.115Z,1.17
2022-11-15T07:52:03.012Z,0.50
2022-11-15T07:55:44.665Z,0.50
2022-11-15T07:59:26.364Z,0.75
2022-11-15T08:03:10.083Z,0.80
2022-11-15T08:10:39.265Z,0.60
2022-11-15T08:14:23.056Z,0.50
2022-11-15T08:18:12.817Z,0.60
2022-11-15T08:21:56.705Z,0.60
2022-11-15T08:25:38.603Z,0.90
2022-11-15T08:29:20.401Z,0.60
2022-11-15T08:33:02.103Z,1.58
2022-11-15T08:36:46.158Z,1.05
2022-11-15T08:40:28.034Z,1.45
2022-11-15T08:44:09.982Z,1.20
2022-11-15T08:47:54.438Z,1.13
2022-11-15T08:51:36.645Z,1.30
2022-11-15T08:55:18.330Z,1.10
2022-11-15T08:59:00.010Z,0.80
2022-11-15T09:02:41.890Z,0.77
2022-11-15T09:06:23.878Z,1.20
2022-11-15T09:10:05.882Z,0.80
2022-11-15T09:13:48.705Z,0.50
2022-11-15T09:17:31.542Z,0.40
2022-11-15T09:21:14.787Z,0.88
2022-11-15T09:24:56.474Z,1.13
2022-11-15T09:28:39.198Z,0.90
2022-11-15T09:32:21.069Z,1.02
2022-11-15T09:36:04.605Z,0.32
2022-11-15T09:39:46.278Z,0.52
2022-11-15T09:43:49.929Z,0.80
2022-11-15T09:47:49.585Z,0.38
2022-11-15T09:51:47.803Z,0.52
2022-11-15T09:55:48.962Z,0.80
2022-11-15T10:00:23.763Z,0.75
2022-11-15T10:04:06.610Z,1.40
2022-11-15T10:08:21.369Z,0.95
2022-11-15T10:12:03.340Z,0.90
2022-11-15T10:15:46.505Z,0.80
2022-11-15T10:19:37.365Z,1.25
2022-11-15T10:23:21.088Z,0.95
2022-11-15T10:30:48.196Z,0.95
2022-11-15T10:34:36.612Z,1.27
2022-11-15T10:38:18.280Z,1.20
2022-11-15T10:42:17.890Z,1.00
2022-11-15T10:46:05.836Z,1.23
2022-11-15T10:50:00.532Z,1.52
2022-11-15T10:53:45.185Z,1.20
2022-11-15T10:57:33.058Z,1.80
2022-11-15T11:01:23.254Z,1.70
2022-11-15T11:05:25.694Z,1.70
2022-11-15T11:09:10.541Z,2.72
2022-11-15T11:12:52.473Z,1.52
2022-11-15T11:16:39.224Z,2.40
2022-11-15T11:20:39.843Z,2.47
2022-11-15T11:25:01.768Z,2.33
2022-11-15T11:29:09.422Z,1.90
2022-11-15T11:32:57.110Z,1.33
2022-11-15T11:36:50.280Z,1.25
2022-11-15T11:40:36.320Z,2.40
2022-11-15T11:44:43.225Z,1.35
2022-11-15T11:48:46.694Z,1.88
2022-11-15T11:52:37.061Z,1.60
2022-11-15T11:56:29.954Z,1.70
2022-11-15T12:00:15.956Z,1.42
2022-11-15T12:04:02.626Z,1.90
2022-11-15T12:07:44.316Z,2.10
2022-11-15T12:12:02.010Z,2.28
2022-11-15T12:15:54.550Z,3.92
2022-11-15T12:19:36.334Z,5.20
2022-11-15T12:23:24.341Z,2.47
2022-11-15T12:27:38.636Z,2.75
2022-11-15T12:35:06.396Z,4.28
2022-11-15T12:39:10.172Z,2.58
2022-11-15T12:43:38.222Z,2.55
2022-11-15T12:47:24.536Z,5.00
2022-11-15T12:51:07.501Z,2.35
2022-11-15T12:54:56.994Z,2.33
2022-11-15T12:58:55.695Z,1.77
2022-11-15T13:02:40.732Z,2.72
2022-11-15T13:06:52.477Z,1.92
2022-11-15T13:10:34.560Z,2.20
2022-11-15T13:14:38.455Z,1.98
2022-11-15T13:18:40.829Z,1.90
2022-11-15T13:22:41.222Z,1.98
2022-11-15T13:26:23.011Z,2.15
2022-11-15T13:30:05.473Z,1.92
2022-11-15T13:33:47.381Z,2.35
2022-11-15T13:37:30.820Z,2.58
2022-11-15T13:41:24.465Z,2.10
2022-11-15T13:45:06.510Z,2.13
2022-11-15T13:49:09.016Z,2.20
2022-11-15T13:52:50.926Z,2.50
2022-11-15T13:56:32.595Z,1.85
2022-11-15T14:00:35.408Z,1.60
2022-11-15T14:04:23.553Z,1.00
2022-11-15T14:08:23.881Z,1.15
2022-11-15T14:12:33.250Z,1.02
2022-11-15T14:16:22.099Z,0.82
2022-11-15T14:20:19.791Z,0.60
2022-11-15T14:24:18.020Z,0.98
2022-11-15T14:28:23.784Z,0.98
2022-11-15T14:32:22.825Z,0.98
2022-11-15T14:36:22.900Z,0.93
2022-11-15T14:40:05.854Z,1.80
2022-11-15T14:43:47.863Z,1.50
2022-11-15T14:47:29.523Z,1.65
2022-11-15T14:51:15.679Z,2.88
2022-11-15T14:54:58.908Z,1.70
2022-11-15T14:58:40.730Z,2.05
2022-11-15T15:02:24.270Z,2.00
2022-11-15T15:06:06.205Z,1.73
2022-11-15T15:09:47.978Z,1.75
2022-11-15T15:13:31.351Z,1.90
2022-11-15T15:17:13.128Z,2.10
2022-11-15T15:21:04.211Z,1.77
2022-11-15T15:24:46.324Z,2.05
2022-11-15T15:28:34.042Z,1.77
2022-11-15T15:32:16.364Z,1.98
2022-11-15T15:35:58.085Z,1.52
2022-11-15T15:39:39.761Z,1.35
2022-11-15T15:43:21.475Z,1.65
2022-11-15T15:47:03.170Z,1.80
2022-11-15T15:50:45.010Z,2.80
2022-11-15T15:54:26.861Z,1.52
2022-11-15T15:58:09.206Z,2.13
2022-11-15T16:01:51.121Z,1.20
2022-11-15T16:05:32.781Z,1.40
2022-11-15T16:09:18.778Z,1.75
2022-11-15T16:13:01.293Z,1.52
2022-11-15T16:16:43.013Z,1.30
2022-11-15T16:20:34.567Z,1.42
2022-11-15T16:24:16.340Z,1.65
2022-11-15T16:27:58.025Z,1.63
2022-11-15T16:31:39.982Z,1.80
2022-11-15T16:35:21.708Z,2.15
2022-11-15T16:39:06.461Z,1.67
2022-11-15T16:42:48.432Z,2.13
2022-11-15T16:46:30.180Z,1.42
2022-11-15T16:50:24.174Z,1.33
2022-11-15T16:54:06.104Z,1.75
2022-11-15T16:57:48.205Z,2.17
2022-11-15T17:01:32.951Z,1.10
2022-11-15T17:05:19.877Z,1.67
2022-11-15T17:09:01.989Z,2.03
2022-11-15T17:12:43.697Z,2.83
2022-11-15T17:16:25.591Z,1.88
2022-11-15T17:20:10.095Z,1.60
2022-11-15T17:23:51.958Z,1.58
2022-11-15T17:27:33.632Z,1.30
2022-11-15T17:31:15.489Z,1.40
2022-11-15T17:34:57.163Z,1.60
2022-11-15T17:38:41.086Z,1.58
2022-11-15T17:42:23.019Z,1.30
2022-11-15T17:46:06.162Z,1.48
2022-11-15T17:49:47.933Z,1.73
2022-11-15T17:53:37.400Z,1.27
2022-11-15T17:57:19.069Z,1.00
2022-11-15T18:01:08.218Z,2.10
2022-11-15T18:04:49.983Z,3.53
2022-11-15T18:08:32.038Z,1.63
2022-11-15T18:12:14.104Z,1.70
2022-11-15T18:16:02.469Z,1.25
2022-11-15T18:19:44.213Z,1.27
2022-11-15T18:23:26.242Z,1.30
2022-11-15T18:27:07.989Z,1.70
2022-11-15T18:30:49.684Z,1.65
2022-11-15T18:34:34.544Z,1.10
2022-11-15T18:38:16.232Z,1.30
2022-11-15T18:41:58.037Z,1.50
2022-11-15T18:45:39.708Z,1.30
2022-11-15T18:49:21.501Z,1.50
2022-11-15T18:53:03.444Z,1.50
2022-11-15T18:56:45.858Z,1.00
2022-11-15T19:00:27.555Z,0.90
2022-11-15T19:04:14.336Z,1.13
2022-11-15T19:07:56.012Z,0.90
2022-11-15T19:11:40.133Z,1.05
2022-11-15T19:15:21.837Z,1.20
2022-11-15T19:19:05.332Z,1.38
2022-11-15T19:22:47.335Z,1.35
2022-11-15T19:26:29.286Z,2.40
2022-11-15T19:30:13.137Z,3.15
2022-11-15T19:37:36.708Z,2.50
2022-11-15T19:41:19.773Z,2.50
2022-11-15T19:45:01.498Z,2.35
2022-11-15T19:48:43.332Z,2.55
2022-11-15T19:52:26.352Z,1.95
2022-11-15T19:56:11.784Z,1.75
2022-11-15T19:59:53.470Z,1.55
2022-11-15T20:03:36.713Z,0.85
2022-11-15T20:07:18.638Z,2.13
2022-11-15T20:11:02.346Z,1.40
2022-11-15T20:14:45.940Z,1.40
2022-11-15T20:18:28.288Z,1.77
2022-11-15T20:22:11.326Z,1.83
2022-11-15T20:25:53.185Z,1.50
2022-11-15T20:29:34.859Z,1.60
2022-11-15T20:33:17.200Z,1.83
2022-11-15T20:36:58.966Z,1.90
2022-11-15T20:40:40.745Z,1.73
2022-11-15T20:44:22.588Z,2.50
2022-11-15T20:48:04.571Z,2.00
2022-11-15T20:51:46.515Z,2.78
2022-11-15T20:55:28.219Z,2.97
2022-11-15T20:59:09.940Z,2.70
2022-11-15T21:02:52.022Z,1.73
2022-11-15T21:06:33.893Z,2.55
2022-11-15T21:10:34.113Z,1.20
2022-11-15T21:14:17.369Z,1.30
2022-11-15T21:17:59.046Z,1.45
2022-11-15T21:21:41.925Z,1.63
2022-11-15T21:25:23.626Z,1.60
2022-11-15T21:29:05.464Z,1.92
2022-11-15T21:32:47.301Z,1.98
2022-11-15T21:36:29.169Z,2.03
2022-11-15T21:40:11.356Z,1.80
2022-11-15T21:43:57.016Z,1.42
2022-11-15T21:47:42.040Z,2.88
2022-11-15T21:51:27.691Z,7.07
2022-11-15T21:55:09.625Z,5.65
2022-11-15T21:58:52.069Z,4.80
2022-11-15T22:02:34.016Z,2.30
2022-11-15T22:06:18.107Z,2.47
2022-11-15T22:10:00.255Z,1.80
2022-11-15T22:13:42.524Z,1.63
2022-11-15T22:17:44.234Z,1.83
2022-11-15T22:21:26.072Z,1.98
2022-11-15T22:25:07.967Z,1.92
2022-11-15T22:28:49.671Z,1.85
2022-11-15T22:32:31.469Z,2.80
2022-11-15T22:36:13.355Z,1.58
2022-11-15T22:39:55.032Z,2.05
2022-11-15T22:43:36.910Z,1.75
2022-11-15T22:47:19.129Z,2.20
2022-11-15T22:51:01.293Z,1.85
2022-11-15T22:54:43.003Z,1.60
2022-11-15T22:58:25.486Z,2.10
2022-11-15T23:02:07.461Z,2.58
2022-11-15T23:05:49.627Z,1.92
2022-11-15T23:09:31.359Z,1.88
2022-11-15T23:13:16.286Z,2.15
2022-11-15T23:17:00.620Z,2.13
2022-11-15T23:20:43.731Z,2.20
2022-11-15T23:24:26.247Z,1.92
2022-11-15T23:28:07.964Z,2.83
2022-11-15T23:32:10.149Z,1.48
2022-11-15T23:35:55.254Z,1.65
2022-11-15T23:39:37.139Z,1.90
2022-11-15T23:43:20.410Z,1.60
2022-11-15T23:47:02.100Z,1.00
2022-11-15T23:50:46.147Z,1.50
2022-11-15T23:54:28.066Z,1.35
2022-11-15T23:58:10.022Z,1.10
